createdAt,value
2017-12-31T00:00:11.733Z,10.90
2017-12-31T00:02:42.327Z,10.90
2017-12-31T00:05:11.838Z,10.90
2017-12-31T00:07:43.445Z,10.90
2017-12-31T00:10:13.463Z,10.80
2017-12-31T00:12:43.753Z,10.80
2017-12-31T00:15:13.280Z,10.80
2017-12-31T00:17:42.532Z,10.80
2017-12-31T00:20:12.557Z,10.70
2017-12-31T00:22:42.798Z,10.70
2017-12-31T00:25:12.696Z,10.60
2017-12-31T00:27:43.715Z,10.50
2017-12-31T00:30:13.237Z,10.50
2017-12-31T00:32:42.830Z,10.50
2017-12-31T00:35:12.337Z,10.50
2017-12-31T00:37:42.208Z,10.40
2017-12-31T00:40:11.707Z,10.40
2017-12-31T00:42:43.049Z,10.40
2017-12-31T00:45:12.543Z,10.40
2017-12-31T00:47:42.056Z,10.40
2017-12-31T00:50:11.908Z,10.30
2017-12-31T00:52:43.480Z,10.30
2017-12-31T00:55:13.101Z,10.30
2017-12-31T00:57:42.609Z,10.30
2017-12-31T01:00:12.158Z,10.30
2017-12-31T01:02:42.828Z,10.30
2017-12-31T01:05:12.050Z,10.30
2017-12-31T01:07:41.564Z,10.30
2017-12-31T01:10:13.339Z,10.20
2017-12-31T01:12:42.880Z,10.20
2017-12-31T01:15:12.424Z,10.20
2017-12-31T01:17:42.315Z,10.30
2017-12-31T01:20:11.808Z,10.30
2017-12-31T01:22:42.943Z,10.20
2017-12-31T01:25:12.479Z,10.20
2017-12-31T01:27:42.016Z,10.20
2017-12-31T01:30:12.131Z,10.20
2017-12-31T01:32:42.397Z,10.20
2017-12-31T01:35:12.093Z,10.20
2017-12-31T01:37:41.594Z,10.20
2017-12-31T01:40:13.225Z,10.20
2017-12-31T01:42:42.716Z,10.20
2017-12-31T01:45:12.380Z,10.10
2017-12-31T01:47:42.253Z,10.10
2017-12-31T01:50:11.477Z,10.10
2017-12-31T01:52:42.740Z,10.10
2017-12-31T01:55:13.034Z,10.10
2017-12-31T01:57:42.787Z,10.10
2017-12-31T02:00:11.964Z,10.10
2017-12-31T02:02:42.604Z,10.10
2017-12-31T02:05:12.873Z,10.10
2017-12-31T02:07:42.768Z,10.10
2017-12-31T02:10:12.746Z,10.00
2017-12-31T02:12:43.053Z,10.00
2017-12-31T02:15:12.558Z,10.00
2017-12-31T02:17:42.072Z,10.00
2017-12-31T02:20:11.635Z,10.00
2017-12-31T02:22:42.449Z,10.00
2017-12-31T02:25:13.096Z,10.10
2017-12-31T02:27:42.684Z,10.10
2017-12-31T02:30:11.851Z,10.10
2017-12-31T02:32:43.285Z,10.00
2017-12-31T02:35:12.785Z,10.00
2017-12-31T02:37:42.270Z,10.00
2017-12-31T02:40:12.108Z,9.90
2017-12-31T02:42:41.608Z,10.00
2017-12-31T02:45:13.314Z,9.90
2017-12-31T02:47:42.804Z,9.90
2017-12-31T02:50:13.435Z,9.90
2017-12-31T02:52:42.980Z,9.90
2017-12-31T02:55:12.489Z,9.90
2017-12-31T02:57:43.159Z,9.90
2017-12-31T03:00:12.650Z,9.90
2017-12-31T03:02:41.901Z,9.90
2017-12-31T03:05:12.797Z,9.90
2017-12-31T03:07:42.269Z,9.80
2017-12-31T03:10:11.809Z,9.80
2017-12-31T03:12:42.940Z,9.80
2017-12-31T03:15:13.214Z,9.80
2017-12-31T03:17:42.721Z,9.80
2017-12-31T03:20:13.449Z,9.80
2017-12-31T03:22:42.949Z,9.80
2017-12-31T03:25:12.469Z,9.80
2017-12-31T03:27:42.349Z,9.80
2017-12-31T03:30:13.362Z,9.90
2017-12-31T03:32:43.255Z,9.80
2017-12-31T03:35:12.471Z,9.90
2017-12-31T03:37:41.981Z,9.90
2017-12-31T03:40:12.825Z,9.90
2017-12-31T03:42:42.388Z,9.90
2017-12-31T03:45:11.899Z,9.90
2017-12-31T03:47:42.937Z,9.90
2017-12-31T03:50:12.926Z,9.90
2017-12-31T03:52:42.611Z,9.90
2017-12-31T03:55:12.877Z,10.10
2017-12-31T03:57:42.424Z,10.00
2017-12-31T04:00:11.931Z,10.10
2017-12-31T04:02:43.381Z,10.20
2017-12-31T04:05:14.575Z,10.20
2017-12-31T04:07:44.140Z,10.20
2017-12-31T04:10:14.496Z,10.30
2017-12-31T04:12:44.322Z,10.40
2017-12-31T04:15:13.819Z,10.40
2017-12-31T04:17:44.095Z,10.50
2017-12-31T04:20:13.576Z,10.50
2017-12-31T04:22:43.092Z,10.60
2017-12-31T04:25:13.735Z,10.70
2017-12-31T04:27:44.089Z,10.80
2017-12-31T04:30:13.917Z,10.80
2017-12-31T04:32:44.158Z,11.00
2017-12-31T04:35:13.660Z,10.90
2017-12-31T04:37:43.620Z,11.00
2017-12-31T04:40:13.135Z,11.10
2017-12-31T04:42:43.518Z,11.20
2017-12-31T04:45:13.033Z,11.20
2017-12-31T04:47:42.528Z,11.30
2017-12-31T04:50:12.867Z,11.40
2017-12-31T04:52:42.389Z,11.30
2017-12-31T04:55:11.904Z,11.40
2017-12-31T04:57:42.939Z,11.40
2017-12-31T05:00:12.463Z,11.40
2017-12-31T05:02:41.967Z,11.50
2017-12-31T05:05:12.605Z,11.40
2017-12-31T05:07:42.095Z,11.40
2017-12-31T05:10:11.617Z,11.50
2017-12-31T05:12:43.457Z,11.50
2017-12-31T05:15:12.957Z,11.50
2017-12-31T05:17:42.487Z,11.50
2017-12-31T05:20:13.291Z,11.50
2017-12-31T05:22:42.813Z,11.50
2017-12-31T05:25:12.308Z,11.50
2017-12-31T05:27:42.191Z,11.50
2017-12-31T05:30:11.696Z,11.50
2017-12-31T05:32:41.207Z,11.50
2017-12-31T05:35:12.271Z,11.50
2017-12-31T05:37:41.899Z,11.50
2017-12-31T05:40:12.924Z,11.50
2017-12-31T05:42:42.552Z,11.60
2017-12-31T05:45:12.026Z,11.60
2017-12-31T05:47:41.927Z,11.70
2017-12-31T05:50:14.212Z,11.70
2017-12-31T05:52:44.040Z,11.70
2017-12-31T05:55:13.577Z,11.70
2017-12-31T05:57:43.255Z,11.80
2017-12-31T06:00:13.050Z,11.70
2017-12-31T06:02:42.542Z,11.70
2017-12-31T06:05:12.068Z,11.70
2017-12-31T06:07:41.617Z,11.70
2017-12-31T06:10:12.857Z,11.70
2017-12-31T06:12:42.662Z,11.70
2017-12-31T06:15:12.155Z,11.70
2017-12-31T06:17:41.706Z,11.70
2017-12-31T06:20:13.303Z,11.60
2017-12-31T06:22:43.579Z,11.60
2017-12-31T06:25:12.842Z,11.60
2017-12-31T06:27:42.357Z,11.60
2017-12-31T06:30:11.906Z,11.60
2017-12-31T06:32:44.050Z,11.60
2017-12-31T06:35:13.537Z,11.60
2017-12-31T06:37:43.054Z,11.60
2017-12-31T06:40:12.630Z,11.70
2017-12-31T06:42:42.152Z,11.70
2017-12-31T06:45:11.647Z,11.70
2017-12-31T06:47:43.499Z,11.70
2017-12-31T06:50:13.055Z,11.80
2017-12-31T06:52:42.602Z,11.80
2017-12-31T06:55:12.487Z,11.80
2017-12-31T06:57:41.984Z,11.80
2017-12-31T07:00:11.295Z,11.90
2017-12-31T07:02:43.427Z,12.00
2017-12-31T07:05:12.917Z,12.00
2017-12-31T07:07:42.235Z,12.00
2017-12-31T07:10:13.554Z,12.00
2017-12-31T07:12:43.070Z,12.00
2017-12-31T07:15:12.571Z,11.90
2017-12-31T07:17:42.553Z,11.80
2017-12-31T07:20:12.049Z,11.80
2017-12-31T07:22:41.588Z,11.70
2017-12-31T07:25:11.460Z,11.60
2017-12-31T07:27:40.994Z,11.70
2017-12-31T07:30:12.009Z,11.60
2017-12-31T07:32:41.656Z,11.60
2017-12-31T07:35:13.143Z,11.60
2017-12-31T07:37:42.648Z,11.60
2017-12-31T07:40:12.729Z,11.60
2017-12-31T07:42:42.594Z,11.60
2017-12-31T07:45:12.073Z,11.60
2017-12-31T07:47:41.559Z,11.60
2017-12-31T07:50:13.004Z,11.70
2017-12-31T07:52:42.599Z,11.70
2017-12-31T07:55:12.111Z,11.80
2017-12-31T07:57:41.942Z,11.80
2017-12-31T08:00:11.464Z,11.80
2017-12-31T08:02:41.933Z,11.90
2017-12-31T08:05:12.820Z,11.80
2017-12-31T08:07:43.052Z,11.90
2017-12-31T08:10:13.482Z,11.90
2017-12-31T08:12:43.579Z,12.00
2017-12-31T08:15:13.187Z,12.00
2017-12-31T08:17:42.713Z,12.00
2017-12-31T08:20:13.351Z,12.00
2017-12-31T08:22:42.876Z,12.00
2017-12-31T08:25:12.592Z,12.10
2017-12-31T08:27:42.105Z,12.10
2017-12-31T08:30:11.964Z,12.10
2017-12-31T08:32:42.969Z,12.20
2017-12-31T08:35:12.752Z,12.20
2017-12-31T08:37:42.251Z,12.20
2017-12-31T08:40:11.903Z,12.30
2017-12-31T08:42:42.709Z,12.30
2017-12-31T08:45:12.657Z,12.30
2017-12-31T08:47:42.152Z,12.40
2017-12-31T08:50:12.220Z,12.50
2017-12-31T08:52:41.724Z,12.50
2017-12-31T08:55:13.436Z,12.50
2017-12-31T08:57:42.946Z,12.50
2017-12-31T09:00:12.476Z,12.50
2017-12-31T09:02:42.448Z,12.40
2017-12-31T09:05:12.717Z,12.40
2017-12-31T09:07:42.263Z,12.40
2017-12-31T09:10:11.744Z,12.40
2017-12-31T09:12:42.760Z,12.40
2017-12-31T09:15:12.280Z,12.40
2017-12-31T09:17:42.178Z,12.40
2017-12-31T09:20:11.672Z,12.50
2017-12-31T09:22:43.054Z,12.50
2017-12-31T09:25:12.582Z,12.60
2017-12-31T09:27:42.568Z,12.60
2017-12-31T09:30:13.304Z,12.60
2017-12-31T09:32:42.816Z,12.60
2017-12-31T09:35:14.362Z,12.60
2017-12-31T09:37:43.925Z,12.60
2017-12-31T09:40:15.341Z,12.70
2017-12-31T09:42:46.319Z,12.70
2017-12-31T09:45:16.632Z,12.80
2017-12-31T09:47:46.968Z,12.70
2017-12-31T09:50:16.468Z,12.70
2017-12-31T09:52:46.722Z,12.90
2017-12-31T09:55:17.787Z,12.90
2017-12-31T09:57:47.331Z,12.80
2017-12-31T10:00:17.935Z,12.90
2017-12-31T10:02:47.930Z,12.90
2017-12-31T10:05:17.445Z,12.90
2017-12-31T10:07:47.995Z,12.90
2017-12-31T10:10:17.531Z,12.90
2017-12-31T10:12:47.060Z,13.00
2017-12-31T10:15:17.163Z,13.00
2017-12-31T10:17:46.661Z,13.10
2017-12-31T10:20:16.160Z,13.10
2017-12-31T10:22:46.444Z,13.10
2017-12-31T10:25:15.946Z,13.10
2017-12-31T10:27:46.218Z,13.30
2017-12-31T10:30:15.720Z,13.30
2017-12-31T10:32:45.229Z,13.40
2017-12-31T10:35:15.066Z,13.40
2017-12-31T10:37:44.566Z,13.50
2017-12-31T10:40:14.066Z,13.40
2017-12-31T10:42:43.600Z,13.40
2017-12-31T10:45:13.147Z,13.40
2017-12-31T10:47:42.647Z,13.40
2017-12-31T10:50:12.211Z,13.40
2017-12-31T10:52:41.734Z,13.40
2017-12-31T10:55:11.251Z,13.50
2017-12-31T10:57:41.857Z,13.60
2017-12-31T11:00:11.362Z,13.50
2017-12-31T11:02:40.571Z,13.60
2017-12-31T11:05:10.480Z,13.60
2017-12-31T11:07:40.738Z,13.70
2017-12-31T11:10:10.274Z,13.70
2017-12-31T11:12:39.764Z,13.70
2017-12-31T11:15:10.041Z,13.80
2017-12-31T11:17:39.578Z,13.80
2017-12-31T11:20:09.077Z,13.90
2017-12-31T11:22:39.727Z,14.00
2017-12-31T11:25:09.239Z,14.00
2017-12-31T11:27:38.726Z,14.00
2017-12-31T11:30:08.364Z,13.90
2017-12-31T11:32:37.847Z,13.90
2017-12-31T11:35:08.394Z,13.90
2017-12-31T11:37:37.888Z,13.90
2017-12-31T11:40:07.390Z,13.90
2017-12-31T11:42:36.967Z,13.90
2017-12-31T11:45:06.462Z,14.00
2017-12-31T11:47:35.761Z,14.00
2017-12-31T11:50:05.764Z,14.00
2017-12-31T11:52:36.854Z,14.00
2017-12-31T11:55:06.680Z,14.00
2017-12-31T11:57:35.923Z,14.00
2017-12-31T12:00:06.196Z,13.80
2017-12-31T12:02:35.682Z,13.70
2017-12-31T12:05:06.339Z,13.60
2017-12-31T12:07:37.409Z,13.50
2017-12-31T12:10:07.001Z,13.50
2017-12-31T12:12:36.503Z,13.40
2017-12-31T12:15:07.685Z,13.40
2017-12-31T12:17:37.180Z,13.40
2017-12-31T12:20:06.413Z,13.40
2017-12-31T12:22:35.972Z,13.40
2017-12-31T12:25:05.569Z,13.40
2017-12-31T12:27:35.509Z,13.40
2017-12-31T12:30:05.084Z,13.40
2017-12-31T12:32:34.586Z,13.50
2017-12-31T12:35:04.081Z,13.50
2017-12-31T12:37:33.713Z,13.60
2017-12-31T12:40:03.202Z,13.60
2017-12-31T12:42:32.378Z,13.60
2017-12-31T12:45:01.881Z,13.70
2017-12-31T12:47:31.392Z,13.70
2017-12-31T12:50:00.918Z,13.70
2017-12-31T12:52:30.888Z,13.80
2017-12-31T12:55:00.386Z,13.80
2017-12-31T12:57:29.906Z,13.70
2017-12-31T12:59:59.802Z,13.80
2017-12-31T13:02:29.434Z,13.80
2017-12-31T13:05:00.433Z,13.80
2017-12-31T13:07:30.018Z,13.80
2017-12-31T13:09:59.552Z,13.70
2017-12-31T13:12:29.354Z,13.70
2017-12-31T13:14:58.850Z,13.70
2017-12-31T13:17:28.353Z,13.70
2017-12-31T13:19:57.907Z,13.70
2017-12-31T13:22:28.147Z,13.70
2017-12-31T13:24:58.422Z,13.70
2017-12-31T13:27:27.990Z,13.70
2017-12-31T13:29:57.536Z,13.70
2017-12-31T13:32:27.664Z,13.70
2017-12-31T13:34:57.159Z,13.80
2017-12-31T13:37:26.664Z,13.80
2017-12-31T13:39:57.294Z,13.80
2017-12-31T13:42:27.266Z,13.90
2017-12-31T13:44:56.821Z,13.90
2017-12-31T13:47:26.533Z,13.90
2017-12-31T13:49:56.955Z,13.90
2017-12-31T13:52:26.469Z,13.90
2017-12-31T13:54:55.963Z,13.90
2017-12-31T13:57:25.554Z,13.90
2017-12-31T13:59:55.116Z,13.90
2017-12-31T14:02:24.653Z,13.90
2017-12-31T14:04:54.658Z,13.80
2017-12-31T14:07:24.924Z,13.80
2017-12-31T14:09:54.428Z,13.80
2017-12-31T14:12:23.944Z,13.80
2017-12-31T14:14:53.959Z,13.80
2017-12-31T14:17:23.458Z,13.70
2017-12-31T14:19:53.867Z,13.50
2017-12-31T14:22:23.749Z,13.20
2017-12-31T14:24:53.281Z,12.90
2017-12-31T14:27:23.202Z,12.80
2017-12-31T14:29:54.880Z,12.70
2017-12-31T14:32:24.378Z,12.70
2017-12-31T14:34:54.234Z,12.60
2017-12-31T14:37:23.886Z,12.60
2017-12-31T14:39:53.446Z,12.50
2017-12-31T14:42:23.350Z,12.40
2017-12-31T14:44:53.614Z,12.30
2017-12-31T14:47:24.174Z,12.20
2017-12-31T14:49:53.683Z,12.10
2017-12-31T14:52:24.333Z,12.00
2017-12-31T14:54:53.838Z,12.00
2017-12-31T14:57:23.382Z,11.90
2017-12-31T14:59:54.032Z,11.70
2017-12-31T15:02:23.524Z,11.70
2017-12-31T15:04:53.184Z,11.60
2017-12-31T15:07:22.980Z,11.60
2017-12-31T15:09:52.505Z,11.50
2017-12-31T15:12:23.963Z,11.50
2017-12-31T15:14:54.236Z,11.40
2017-12-31T15:17:23.778Z,11.40
2017-12-31T15:19:53.428Z,11.40
2017-12-31T15:22:24.896Z,11.30
2017-12-31T15:24:55.694Z,11.30
2017-12-31T15:27:25.816Z,11.20
2017-12-31T15:29:55.664Z,11.30
2017-12-31T15:32:25.210Z,11.30
2017-12-31T15:34:54.713Z,11.20
2017-12-31T15:37:24.242Z,11.20
2017-12-31T15:39:55.001Z,11.20
2017-12-31T15:42:25.087Z,11.20
2017-12-31T15:44:54.628Z,11.20
2017-12-31T15:47:24.355Z,11.10
2017-12-31T15:49:53.833Z,11.10
2017-12-31T15:52:23.342Z,11.10
2017-12-31T15:54:53.211Z,11.10
2017-12-31T15:57:23.269Z,11.10
2017-12-31T15:59:53.560Z,11.10
2017-12-31T16:02:23.104Z,11.00
2017-12-31T16:04:52.779Z,11.00
2017-12-31T16:07:24.142Z,11.00
2017-12-31T16:09:53.644Z,11.00
2017-12-31T16:12:23.149Z,10.90
2017-12-31T16:14:52.972Z,10.90
2017-12-31T16:17:22.441Z,10.90
2017-12-31T16:19:51.957Z,10.90
2017-12-31T16:22:21.858Z,10.90
2017-12-31T16:24:52.122Z,10.90
2017-12-31T16:27:22.424Z,10.90
2017-12-31T16:29:51.926Z,10.90
2017-12-31T16:32:21.429Z,10.90
2017-12-31T16:34:51.496Z,10.80
2017-12-31T16:37:21.044Z,10.80
2017-12-31T16:39:50.637Z,10.80
2017-12-31T16:42:20.162Z,10.80
2017-12-31T16:44:49.650Z,10.80
2017-12-31T16:47:19.197Z,10.80
2017-12-31T16:49:49.237Z,10.80
2017-12-31T16:52:18.882Z,10.80
2017-12-31T16:54:49.147Z,10.80
2017-12-31T16:57:19.591Z,10.70
2017-12-31T16:59:49.443Z,10.70
2017-12-31T17:02:19.749Z,10.80
2017-12-31T17:04:49.261Z,10.70
2017-12-31T17:07:19.546Z,10.80
2017-12-31T17:09:49.055Z,10.70
2017-12-31T17:12:18.670Z,10.80
2017-12-31T17:14:48.474Z,10.80
2017-12-31T17:17:18.061Z,10.70
2017-12-31T17:19:47.610Z,10.80
2017-12-31T17:22:17.134Z,10.80
2017-12-31T17:24:46.652Z,10.70
2017-12-31T17:27:16.172Z,10.80
2017-12-31T17:29:46.175Z,10.80
2017-12-31T17:32:15.685Z,10.70
2017-12-31T17:34:45.222Z,10.70
2017-12-31T17:37:15.133Z,10.70
2017-12-31T17:39:44.628Z,10.70
2017-12-31T17:42:14.345Z,10.70
2017-12-31T17:44:45.089Z,10.60
2017-12-31T17:47:14.603Z,10.60
2017-12-31T17:49:44.105Z,10.60
2017-12-31T17:52:14.131Z,10.60
2017-12-31T17:54:43.884Z,10.60
2017-12-31T17:57:13.588Z,10.60
2017-12-31T17:59:43.499Z,10.60
2017-12-31T18:02:13.064Z,10.60
2017-12-31T18:04:43.313Z,10.60
2017-12-31T18:07:12.989Z,10.60
2017-12-31T18:09:42.526Z,10.60
2017-12-31T18:12:12.056Z,10.60
2017-12-31T18:14:41.554Z,10.50
2017-12-31T18:17:11.100Z,10.50
2017-12-31T18:19:40.869Z,10.50
2017-12-31T18:22:10.424Z,10.50
2017-12-31T18:24:40.091Z,10.50
2017-12-31T18:27:09.657Z,10.50
2017-12-31T18:29:40.324Z,10.40
2017-12-31T18:32:09.828Z,10.40
2017-12-31T18:34:41.337Z,10.40
2017-12-31T18:37:11.982Z,10.40
2017-12-31T18:39:41.618Z,10.40
2017-12-31T18:42:11.127Z,10.40
2017-12-31T18:44:40.879Z,10.40
2017-12-31T18:47:10.861Z,10.30
2017-12-31T18:49:41.589Z,10.30
2017-12-31T18:52:11.867Z,10.20
2017-12-31T18:54:43.107Z,10.20
2017-12-31T18:57:12.627Z,10.20
2017-12-31T18:59:42.273Z,10.20
2017-12-31T19:02:12.704Z,10.20
2017-12-31T19:04:42.557Z,10.20
2017-12-31T19:07:11.857Z,10.10
2017-12-31T19:09:41.362Z,10.10
2017-12-31T19:12:12.197Z,10.10
2017-12-31T19:14:41.664Z,10.10
2017-12-31T19:17:11.232Z,10.10
2017-12-31T19:19:41.500Z,10.10
2017-12-31T19:22:11.412Z,10.10
2017-12-31T19:24:40.911Z,10.10
2017-12-31T19:27:10.413Z,10.10
2017-12-31T19:29:40.468Z,10.10
2017-12-31T19:32:10.144Z,10.00
2017-12-31T19:34:39.664Z,10.10
2017-12-31T19:37:09.458Z,10.10
2017-12-31T19:39:39.058Z,10.10
2017-12-31T19:42:08.764Z,10.10
2017-12-31T19:44:38.552Z,10.00
2017-12-31T19:47:08.177Z,10.00
2017-12-31T19:49:37.796Z,10.00
2017-12-31T19:52:08.334Z,10.00
2017-12-31T19:54:39.148Z,10.10
2017-12-31T19:57:09.747Z,10.00
2017-12-31T19:59:39.243Z,10.00
2017-12-31T20:02:08.761Z,10.00
2017-12-31T20:04:38.308Z,10.00
2017-12-31T20:07:07.820Z,10.00
2017-12-31T20:09:38.542Z,9.90
2017-12-31T20:12:07.775Z,9.90
2017-12-31T20:14:37.574Z,9.90
2017-12-31T20:17:07.628Z,9.80
2017-12-31T20:19:37.134Z,9.80
2017-12-31T20:22:06.613Z,9.80
2017-12-31T20:24:36.569Z,9.70
2017-12-31T20:27:06.062Z,9.70
2017-12-31T20:29:37.561Z,9.60
2017-12-31T20:32:07.145Z,9.60
2017-12-31T20:34:36.693Z,9.60
2017-12-31T20:37:06.452Z,9.60
2017-12-31T20:39:35.997Z,9.60
2017-12-31T20:42:06.013Z,9.60
2017-12-31T20:44:35.509Z,9.60
2017-12-31T20:47:05.017Z,9.60
2017-12-31T20:49:34.893Z,9.50
2017-12-31T20:52:04.403Z,9.50
2017-12-31T20:54:33.899Z,9.50
2017-12-31T20:57:03.693Z,9.50
2017-12-31T20:59:33.193Z,9.50
2017-12-31T21:02:02.729Z,9.50
2017-12-31T21:04:32.588Z,9.50
2017-12-31T21:07:02.086Z,9.50
2017-12-31T21:09:31.604Z,9.50
2017-12-31T21:12:01.392Z,9.40
2017-12-31T21:14:30.904Z,9.50
2017-12-31T21:17:00.417Z,9.50
2017-12-31T21:19:30.195Z,9.50
2017-12-31T21:22:00.457Z,9.50
2017-12-31T21:24:30.877Z,9.50
2017-12-31T21:27:00.368Z,9.50
2017-12-31T21:29:29.889Z,9.50
2017-12-31T21:31:59.598Z,9.50
2017-12-31T21:34:29.090Z,9.50
2017-12-31T21:36:58.648Z,9.50
2017-12-31T21:39:28.343Z,9.50
2017-12-31T21:41:58.245Z,9.50
2017-12-31T21:44:28.484Z,9.40
2017-12-31T21:46:58.362Z,9.40
2017-12-31T21:49:27.870Z,9.40
2017-12-31T21:51:58.593Z,9.40
2017-12-31T21:54:28.847Z,9.40
2017-12-31T21:56:59.394Z,9.40
2017-12-31T21:59:29.054Z,9.40
2017-12-31T22:01:59.553Z,9.50
2017-12-31T22:04:29.042Z,9.40
2017-12-31T22:06:58.531Z,9.50
2017-12-31T22:09:28.374Z,9.50
2017-12-31T22:11:58.128Z,9.40
2017-12-31T22:14:28.772Z,9.40
2017-12-31T22:16:58.264Z,9.40
2017-12-31T22:19:27.781Z,9.40
2017-12-31T22:21:57.718Z,9.40
2017-12-31T22:24:27.235Z,9.40
2017-12-31T22:26:56.768Z,9.40
2017-12-31T22:29:27.377Z,9.30
2017-12-31T22:31:56.963Z,9.30
2017-12-31T22:34:26.496Z,9.20
2017-12-31T22:36:56.368Z,9.20
2017-12-31T22:39:25.854Z,9.10
2017-12-31T22:41:55.347Z,9.10
2017-12-31T22:44:25.172Z,9.10
2017-12-31T22:46:54.652Z,9.10
2017-12-31T22:49:24.182Z,9.10
2017-12-31T22:51:53.797Z,9.10
2017-12-31T22:54:24.257Z,9.10
2017-12-31T22:56:54.538Z,9.10
2017-12-31T22:59:26.094Z,9.10
2017-12-31T23:01:56.105Z,9.10
2017-12-31T23:04:25.406Z,9.10
2017-12-31T23:06:55.708Z,9.00
2017-12-31T23:09:26.576Z,9.00
2017-12-31T23:11:57.860Z,8.90
2017-12-31T23:14:28.011Z,8.90
2017-12-31T23:16:57.556Z,8.90
2017-12-31T23:19:27.087Z,8.90
2017-12-31T23:21:57.000Z,8.80
2017-12-31T23:24:26.406Z,8.80
2017-12-31T23:26:55.728Z,8.80
2017-12-31T23:29:27.334Z,8.70
2017-12-31T23:31:56.589Z,8.70
2017-12-31T23:34:26.605Z,8.70
2017-12-31T23:36:57.361Z,8.60
2017-12-31T23:39:26.845Z,8.60
2017-12-31T23:41:56.417Z,8.60
2017-12-31T23:44:26.301Z,8.60
2017-12-31T23:46:56.582Z,8.60
2017-12-31T23:49:26.105Z,8.60
2017-12-31T23:51:56.364Z,8.60
2017-12-31T23:54:28.557Z,8.60
2017-12-31T23:56:58.044Z,8.60
2017-12-31T23:59:27.693Z,8.60
